Etusivu
METAR-TAF:

METAR-TAF

Lentoasemat :

Calhoun County Airport

Port Lavaca, Texas, Yhdysvallat

Leveyspiiri: 28-39-14N, Pituuspiiri: 096-40-52W, korkeus merenpinnasta: 9 m

Tämänhetkinen sää

Tämä raportti tehtiin 40 minuuttia sitten, kello 05.30 UTC
Tuuli 3 kn etelästä/kaakosta
Lämpötila 27°C
Kosteus 94%
Ilmanpaine 1018 hPa
Näkyvyys: 16.1 km
selkeää

METAR: KPKV 080530Z AUTO 15003KT 10SM CLR 27/26 A3005 RMK AO2 T02730260

Aika: 01:10 (06:10 UTC)


TAF: puuttuu

Säähavainnot ja -ennusteet yli 4000 lentoasemalta (METAR- ja TAF-raportit).

Käytössä olevat sääasemat on merkitty karttaan keltaisilla ja punaisilla pisteillä.

Aseta hiiri pisteen päälle nähdäksesi sääaseman nimen.

Klikkaa sitten nähdäksesi säähavainnot ja -ennusteet.

Kartan vaihtaminen: klikkaa mustalla rastilla varustettuja vihreitä pisteitä, niin voit zoomata sisään; viivalla varustettua vihreää pistettä, niin voit zoomata ulos tai vihreitä nuolia, niin pääset viereisille kartoille.


METAR-TAF: